Flight Track Log - Related Links

Times and Time Zones

All times are in EDT time to prevent confusion due to time zone crossing. See the EJA930 flight status page for this flight to view local times or setup timezone preferences in your user account.

Time Position Orientation Groundspeed Altitude Reporting Facility
EDT Latitude Longitude Course Direction KTS MPH feet Rate Location/Type
Wed 01:48:35 PM 32.8244 -80.0053 37° Northeast 275 316 4,800  Level Jacksonville Center
Wed 01:49:35 PM 32.8819 -79.9539 37° Northeast 315 362 9,000 3,850 Climbing Jacksonville Center
Wed 01:50:35 PM 32.9675 -79.9611 356° North 286 329 12,500 2,850 Climbing Jacksonville Center
Wed 01:51:35 PM 33.0278 -80.0358 314° West 257 296 14,700 2,200 Climbing Jacksonville Center
Wed 01:52:35 PM 33.0775 -80.1211 305° West 289 333 16,900 1,550 Climbing Jacksonville Center
Wed 01:53:35 PM 33.1461 -80.1958 318° Northwest 321 369 17,800 900 Climbing Jacksonville Center
Wed 01:54:35 PM 33.2311 -80.2728 323° Northwest 356 410 18,700 1,000 Climbing Jacksonville Center
Wed 01:55:35 PM 33.3225 -80.3544 323° Northwest 390 449 19,800 1,400 Climbing Jacksonville Center
Wed 01:56:35 PM 33.4097 -80.4342 323° Northwest 403 464 21,500 1,450 Climbing Jacksonville Center
Wed 01:57:35 PM 33.5053 -80.5186 324° Northwest 409 471 22,700 1,200 Climbing Jacksonville Center
Wed 01:58:35 PM 33.5986 -80.6058 322° Northwest 416 479 23,900 1,250 Climbing Jacksonville Center
Wed 01:59:35 PM 33.6942 -80.6883 324° Northwest 421 484 25,200 2,250 Climbing Jacksonville Center
Wed 02:00:35 PM 33.7894 -80.7783 322° Northwest 431 496 28,400 2,200 Climbing Jacksonville Center
Wed 02:01:35 PM 33.8828 -80.8611 324° Northwest 426 490 29,600 1,350 Climbing Jacksonville Center
Wed 02:02:35 PM 33.9739 -80.9569 319° Northwest 431 496 31,100 1,700 Climbing Jacksonville Center
Wed 02:03:35 PM 34.0656 -81.0828 311° West 436 502 33,000 1,300 Climbing Jacksonville Center
Wed 02:04:35 PM 34.1486 -81.2039 310° West 453 521 33,700 926 Climbing Jacksonville Center
Wed 02:06:30 PM 34.3475 -81.3719 325° Northwest 476 548 35,700 789 Climbing Atlanta Center
Wed 02:07:30 PM 34.4686 -81.4689 327° Northwest 503 579 36,000 150 Climbing Atlanta Center
Wed 02:08:30 PM 34.5875 -81.5636 327° Northwest 510 587 36,000  Level Atlanta Center
Wed 02:09:31 PM 34.7064 -81.6661 325° Northwest 525 604 36,000 -500 Level Atlanta Center
Wed 02:10:30 PM 34.8250 -81.7614 327° Northwest 520 598 35,000 -504 Descending Atlanta Center
Wed 02:11:30 PM 34.9456 -81.8569 327° Northwest 520 598 35,000  Level Atlanta Center
Wed 02:12:30 PM 35.0781 -81.9119 341° North 508 585 35,000  Level Atlanta Center
Wed 02:13:30 PM 35.2139 -81.9236 356° North 494 568 35,000  Level Atlanta Center
Wed 02:14:30 PM 35.3661 -81.9172 North 494 568 35,000  Level Atlanta Center
Wed 02:15:30 PM 35.5017 -81.9111 North 494 568 35,000  Level Atlanta Center
Wed 02:16:30 PM 35.6392 -81.9050 North 494 568 35,000  Level Atlanta Center
Wed 02:17:30 PM 35.7747 -81.8964 North 494 568 35,000  Level Atlanta Center
Wed 02:18:30 PM 35.9081 -81.8903 North 489 563 35,000  Level Atlanta Center
Wed 02:19:30 PM 36.0394 -81.8869 North 474 545 35,000  Level Atlanta Center
Wed 02:20:30 PM 36.1603 -81.8758 North 474 545 35,000  Level Atlanta Center
Wed 02:21:30 PM 36.2872 -81.8725 North 468 539 35,000 -900 Level Atlanta Center
Wed 02:22:30 PM 36.4186 -81.8639 North 468 539 33,200 -2,100 Descending Atlanta Center
Wed 02:23:30 PM 36.5561 -81.8575 North 481 554 30,800 -1,957 Descending Atlanta Center
Wed 02:25:34 PM 36.8425 -81.8431 North 507 583 27,200 -1,849 Descending Indianapolis Center
Wed 02:26:35 PM 37.0061 -81.8361 North 506 582 25,100 -1,073 Descending Indianapolis Center
Wed 02:27:37 PM 37.1428 -81.8286 North 494 568 25,000 -532 Descending Indianapolis Center
Wed 02:28:39 PM 37.2758 -81.8231 North 481 554 24,000 -484 Descending Indianapolis Center
Wed 02:29:41 PM 37.4103 -81.8178 North 483 556 24,000  Level Indianapolis Center
Wed 02:30:43 PM 37.5397 -81.8108 North 471 542 24,000 -677 Level Indianapolis Center
Wed 02:31:45 PM 37.6889 -81.8039 North 463 533 22,600 -2,732 Descending Indianapolis Center
Wed 02:32:46 PM 37.8161 -81.7972 North 461 531 18,400 -4,000 Descending Indianapolis Center
Wed 02:33:48 PM 37.9272 -81.7642 13° North 446 513 14,400 -3,581 Descending Indianapolis Center
Wed 02:34:50 PM 38.0283 -81.6972 28° Northeast 411 473 11,000 -2,032 Descending Indianapolis Center
Wed 02:35:52 PM 38.1131 -81.6369 29° Northeast 337 388 10,200 -532 Descending Indianapolis Center
Wed 02:36:54 PM 38.1856 -81.6017 21° North 280 322 9,900 -1,500 Descending Indianapolis Center
Wed 02:37:56 PM 38.2611 -81.5650 21° North 247 284 7,100 -2,732 Descending Indianapolis Center
Wed 02:38:57 PM 38.3283 -81.5236 26° Northeast 267 307 4,300 -2,244 Descending Indianapolis Center
Wed 02:39:59 PM 38.3897 -81.5053 13° North 271 312 2,500 -1,306 Descending Indianapolis Center
Wed 02:41:01 PM 38.4039 -81.5572 289° West 213 245 1,600 -629 Descending Indianapolis Center
Wed 02:42:03 PM 38.3769 -81.5914 225° Southwest 190 219 1,200 -387 Descending Indianapolis Center

Login

Don't have an account? Register now (free) for customized features, flight alerts, and more!